createdAt,value
2022-09-27T00:00:29.897Z,65.99
2022-09-27T00:03:00.630Z,65.68
2022-09-27T00:05:30.840Z,65.85
2022-09-27T00:08:01.318Z,65.84
2022-09-27T00:10:31.254Z,66.08
2022-09-27T00:13:04.128Z,66.67
2022-09-27T00:15:34.515Z,65.91
2022-09-27T00:18:05.413Z,64.47
2022-09-27T00:20:35.505Z,65.88
2022-09-27T00:23:05.651Z,66.77
2022-09-27T00:25:36.498Z,67.08
2022-09-27T00:28:10.275Z,67.01
2022-09-27T00:30:43.092Z,67.76
2022-09-27T00:33:16.639Z,68.35
2022-09-27T00:35:48.448Z,68.03
2022-09-27T00:38:19.475Z,67.18
2022-09-27T00:40:49.766Z,68.17
2022-09-27T00:43:24.300Z,68.10
2022-09-27T00:45:57.576Z,66.73
2022-09-27T00:48:31.404Z,66.41
2022-09-27T00:51:06.178Z,66.96
2022-09-27T00:53:49.049Z,67.04
2022-09-27T00:56:24.386Z,66.22
2022-09-27T00:59:10.555Z,66.30
2022-09-27T01:01:42.262Z,65.46
2022-09-27T01:04:17.216Z,64.83
2022-09-27T01:06:46.708Z,65.85
2022-09-27T01:09:18.287Z,64.04
2022-09-27T01:12:02.767Z,63.86
2022-09-27T01:15:13.622Z,64.11
2022-09-27T01:17:53.914Z,65.23
2022-09-27T01:20:52.163Z,65.32
2022-09-27T01:23:21.723Z,64.46
2022-09-27T01:26:28.854Z,64.98
2022-09-27T01:29:28.826Z,65.92
2022-09-27T01:32:10.589Z,66.36
2022-09-27T01:34:50.797Z,66.48
2022-09-27T01:37:46.939Z,66.89
2022-09-27T01:40:25.996Z,66.78
2022-09-27T01:43:07.811Z,65.87
2022-09-27T01:46:10.606Z,66.02
2022-09-27T01:48:47.323Z,66.10
2022-09-27T01:51:49.659Z,67.25
2022-09-27T01:54:26.149Z,68.18
2022-09-27T01:57:00.741Z,67.89
2022-09-27T01:59:43.678Z,67.87
2022-09-27T02:02:13.433Z,67.32
2022-09-27T02:04:48.759Z,67.34
2022-09-27T02:07:22.384Z,66.19
2022-09-27T02:09:59.670Z,65.37
2022-09-27T02:12:32.634Z,65.64
2022-09-27T02:15:06.388Z,65.41
2022-09-27T02:17:42.573Z,66.35
2022-09-27T02:20:17.935Z,66.33
2022-09-27T02:23:28.632Z,66.40
2022-09-27T02:26:20.264Z,66.02
2022-09-27T02:28:52.854Z,66.36
2022-09-27T02:31:23.880Z,65.88
2022-09-27T02:33:56.917Z,66.33
2022-09-27T02:36:26.088Z,65.41
2022-09-27T02:38:55.237Z,65.64
2022-09-27T02:41:24.781Z,65.00
2022-09-27T02:43:58.368Z,64.42
2022-09-27T02:46:53.530Z,63.17
2022-09-27T02:49:40.671Z,63.08
2022-09-27T02:52:28.837Z,63.02
2022-09-27T02:55:33.672Z,62.81
2022-09-27T02:59:01.096Z,63.07
2022-09-27T03:01:39.704Z,64.13
2022-09-27T03:04:14.799Z,62.97
2022-09-27T03:06:46.476Z,63.16
2022-09-27T03:09:24.013Z,64.09
2022-09-27T03:11:53.475Z,63.27
2022-09-27T03:14:21.887Z,64.61
2022-09-27T03:16:52.677Z,64.32
2022-09-27T03:19:24.764Z,64.86
2022-09-27T03:21:58.242Z,64.45
2022-09-27T03:24:26.893Z,65.05
2022-09-27T03:26:55.143Z,64.36
2022-09-27T03:29:23.016Z,64.79
2022-09-27T03:31:51.909Z,64.47
2022-09-27T03:34:22.556Z,64.22
2022-09-27T03:36:52.877Z,64.60
2022-09-27T03:39:21.418Z,64.10
2022-09-27T03:41:50.257Z,63.89
2022-09-27T03:44:19.589Z,63.80
2022-09-27T03:46:48.180Z,64.99
2022-09-27T03:49:16.204Z,65.65
2022-09-27T03:51:44.692Z,65.35
2022-09-27T03:54:14.400Z,67.12
2022-09-27T03:56:42.975Z,66.22
2022-09-27T03:59:12.877Z,66.85
2022-09-27T04:01:46.691Z,67.43
2022-09-27T04:04:17.795Z,67.17
2022-09-27T04:06:46.485Z,67.22
2022-09-27T04:09:16.281Z,68.21
2022-09-27T04:11:46.218Z,67.88
2022-09-27T04:14:16.982Z,68.57
2022-09-27T04:16:47.830Z,69.52
2022-09-27T04:19:17.063Z,69.30
2022-09-27T04:21:45.670Z,70.27
2022-09-27T04:24:14.415Z,70.12
2022-09-27T04:26:44.216Z,70.13
2022-09-27T04:29:12.913Z,69.80
2022-09-27T04:31:44.307Z,70.79
2022-09-27T04:34:16.480Z,70.83
2022-09-27T04:36:46.491Z,71.48
2022-09-27T04:39:16.858Z,71.30
2022-09-27T04:41:47.403Z,70.70
2022-09-27T04:44:17.283Z,71.31
2022-09-27T04:46:46.382Z,70.51
2022-09-27T04:49:17.682Z,71.42
2022-09-27T04:51:48.876Z,72.15
2022-09-27T04:54:18.408Z,71.50
2022-09-27T04:57:12.345Z,72.41
2022-09-27T05:00:04.387Z,73.38
2022-09-27T05:03:04.092Z,72.84
2022-09-27T05:06:13.462Z,73.55
2022-09-27T05:31:25.318Z,73.16
2022-09-27T05:34:01.533Z,73.08
2022-09-27T05:36:33.373Z,73.26
2022-09-27T05:39:05.232Z,73.69
2022-09-27T05:41:33.740Z,74.24
2022-09-27T05:44:08.638Z,74.28
2022-09-27T05:46:55.072Z,76.11
2022-09-27T05:49:25.848Z,75.10
2022-09-27T05:51:54.598Z,75.13
2022-09-27T05:54:25.997Z,75.73
2022-09-27T05:57:00.660Z,75.09
2022-09-27T05:59:31.132Z,75.33
2022-09-27T06:02:00.434Z,75.29
2022-09-27T06:04:34.959Z,74.42
2022-09-27T06:07:04.581Z,74.36
2022-09-27T06:09:33.745Z,74.56
2022-09-27T06:12:02.963Z,74.05
2022-09-27T06:14:35.743Z,73.79
2022-09-27T06:17:07.730Z,74.07
2022-09-27T06:19:37.486Z,73.63
2022-09-27T06:22:05.638Z,73.49
2022-09-27T06:24:37.546Z,73.47
2022-09-27T06:27:08.199Z,72.40
2022-09-27T06:29:37.684Z,72.16
2022-09-27T06:32:11.651Z,72.48
2022-09-27T06:34:41.879Z,71.81
2022-09-27T06:37:09.862Z,71.09
2022-09-27T06:39:38.412Z,71.00
2022-09-27T06:42:08.501Z,71.37
2022-09-27T06:44:50.777Z,71.01
2022-09-27T06:47:21.871Z,72.36
2022-09-27T06:49:51.774Z,71.42
2022-09-27T06:52:27.814Z,70.97
2022-09-27T06:54:57.178Z,71.20
2022-09-27T06:57:55.330Z,71.78
2022-09-27T07:00:27.049Z,71.33
2022-09-27T07:03:03.845Z,71.06
2022-09-27T07:05:32.312Z,71.31
2022-09-27T07:08:06.574Z,72.01
2022-09-27T07:10:37.801Z,70.93
2022-09-27T07:13:11.512Z,71.61
2022-09-27T07:15:41.650Z,70.43
2022-09-27T07:18:14.072Z,70.26
2022-09-27T07:20:41.974Z,69.87
2022-09-27T07:23:11.215Z,69.53
2022-09-27T07:25:40.468Z,69.15
2022-09-27T07:28:12.419Z,68.53
2022-09-27T07:30:44.077Z,68.40
2022-09-27T07:33:12.946Z,68.64
2022-09-27T07:35:43.186Z,68.95
2022-09-27T07:38:14.249Z,68.73
2022-09-27T07:40:43.054Z,68.71
2022-09-27T07:43:12.464Z,68.35
2022-09-27T07:45:40.886Z,67.94
2022-09-27T07:48:14.389Z,67.80
2022-09-27T07:50:45.193Z,66.80
2022-09-27T07:53:14.134Z,66.37
2022-09-27T07:55:53.457Z,68.07
2022-09-27T07:58:44.237Z,67.89
2022-09-27T08:01:13.698Z,67.22
2022-09-27T08:03:45.686Z,67.93
2022-09-27T08:06:16.838Z,68.27
2022-09-27T08:08:47.844Z,68.81
2022-09-27T08:11:21.615Z,69.51
2022-09-27T08:13:52.751Z,69.42
2022-09-27T08:16:22.305Z,69.00
2022-09-27T08:18:53.517Z,68.43
2022-09-27T08:21:23.984Z,68.90
2022-09-27T08:23:54.417Z,69.37
2022-09-27T08:26:23.558Z,68.97
2022-09-27T08:28:52.740Z,68.23
2022-09-27T08:31:22.741Z,68.89
2022-09-27T08:33:53.561Z,68.39
2022-09-27T08:36:44.282Z,68.00
2022-09-27T08:39:33.942Z,68.39
2022-09-27T08:42:26.085Z,69.33
2022-09-27T08:45:18.041Z,68.94
2022-09-27T08:47:55.442Z,68.56
2022-09-27T08:50:39.835Z,67.82
2022-09-27T08:53:18.668Z,68.20
2022-09-27T08:55:52.081Z,67.60
2022-09-27T08:58:30.585Z,67.65
2022-09-27T09:01:18.844Z,67.62
2022-09-27T09:03:50.960Z,67.66
2022-09-27T09:06:47.331Z,66.92
2022-09-27T09:09:52.142Z,67.96
2022-09-27T09:12:50.246Z,67.00
2022-09-27T09:15:56.242Z,68.03
2022-09-27T09:18:46.997Z,69.51
2022-09-27T09:21:34.850Z,69.96
2022-09-27T09:24:21.958Z,70.43
2022-09-27T09:27:00.095Z,69.59
2022-09-27T09:29:46.528Z,69.40
2022-09-27T09:32:40.900Z,69.74
2022-09-27T09:35:19.773Z,69.58
2022-09-27T09:37:54.656Z,70.14
2022-09-27T09:41:05.486Z,69.62
2022-09-27T09:43:58.127Z,70.95
2022-09-27T09:46:43.552Z,70.54
2022-09-27T09:49:30.127Z,70.86
2022-09-27T09:52:12.488Z,70.81
2022-09-27T09:54:47.315Z,70.29
2022-09-27T09:57:23.773Z,70.59
2022-09-27T09:59:58.594Z,71.01
2022-09-27T10:02:31.637Z,70.34
2022-09-27T10:05:07.839Z,70.20
2022-09-27T10:07:40.033Z,71.21
2022-09-27T10:10:11.401Z,70.78
2022-09-27T10:12:43.974Z,70.21
2022-09-27T10:15:25.307Z,71.06
2022-09-27T10:17:56.507Z,70.75
2022-09-27T10:20:45.369Z,70.05
2022-09-27T10:23:21.664Z,70.36
2022-09-27T10:25:55.806Z,70.73
2022-09-27T10:28:46.369Z,70.65
2022-09-27T10:31:18.326Z,69.59
2022-09-27T10:34:01.118Z,69.12
2022-09-27T10:36:37.049Z,69.29
2022-09-27T10:39:07.146Z,69.80
2022-09-27T10:41:41.774Z,69.94
2022-09-27T10:44:18.623Z,69.12
2022-09-27T10:46:51.336Z,69.41
2022-09-27T10:49:28.717Z,69.11
2022-09-27T10:52:37.779Z,69.48
2022-09-27T10:55:26.433Z,68.81
2022-09-27T10:58:00.119Z,68.82
2022-09-27T11:00:36.605Z,68.14
2022-09-27T11:03:59.474Z,68.39
2022-09-27T11:06:53.617Z,68.26
2022-09-27T11:09:52.926Z,67.32
2022-09-27T11:12:45.905Z,66.30
2022-09-27T12:07:11.689Z,65.35
2022-09-27T12:10:13.551Z,64.90
2022-09-27T13:29:00.265Z,61.25
2022-09-27T13:32:00.150Z,62.80
2022-09-27T13:34:56.811Z,62.02
2022-09-27T13:37:36.959Z,61.14
2022-09-27T13:40:30.828Z,61.29
2022-09-27T13:43:50.946Z,60.22
2022-09-27T13:46:26.288Z,59.96
2022-09-27T13:49:16.695Z,60.45
2022-09-27T13:52:02.234Z,59.90
2022-09-27T13:54:35.086Z,58.55
2022-09-27T13:57:47.245Z,58.84
2022-09-27T14:00:44.408Z,61.60
2022-09-27T15:32:29.699Z,58.33
2022-09-27T15:35:38.583Z,58.61
2022-09-27T15:38:38.340Z,58.00
2022-09-27T15:41:25.419Z,58.54
2022-09-27T15:44:40.117Z,58.48
2022-09-27T15:57:06.479Z,59.33
2022-09-27T15:59:51.304Z,59.48
2022-09-27T16:02:38.086Z,60.53
2022-09-27T16:05:39.857Z,60.62
2022-09-27T16:21:54.087Z,62.45
2022-09-27T16:25:09.025Z,62.91
2022-09-27T16:27:52.714Z,60.95
2022-09-27T16:31:05.323Z,60.97
2022-09-27T16:34:00.511Z,60.71
2022-09-27T16:36:45.119Z,61.24
2022-09-27T16:39:53.312Z,61.86
2022-09-27T16:42:36.582Z,61.09
2022-09-27T16:45:44.850Z,60.67
2022-09-27T16:48:32.460Z,62.31
2022-09-27T16:51:53.805Z,61.22
2022-09-27T16:54:41.590Z,62.01
2022-09-27T17:13:07.387Z,62.84
2022-09-27T17:25:41.930Z,64.00
2022-09-27T17:28:26.719Z,64.28
2022-09-27T17:31:29.366Z,64.60
2022-09-27T17:34:17.333Z,64.02
2022-09-27T17:37:25.349Z,64.26
2022-09-27T17:40:16.574Z,63.47
2022-09-27T17:43:24.636Z,63.56
2022-09-27T17:46:13.892Z,63.08
2022-09-27T17:49:15.378Z,63.50
2022-09-27T18:32:33.689Z,64.76
2022-09-27T18:35:32.040Z,64.84
2022-09-27T18:38:19.964Z,64.92
2022-09-27T18:41:28.295Z,64.10
2022-09-27T18:44:18.211Z,63.55
2022-09-27T19:05:49.087Z,64.05
2022-09-27T19:08:32.017Z,65.19
2022-09-27T19:11:18.651Z,64.07
2022-09-27T19:23:34.721Z,65.22
2022-09-27T19:26:58.186Z,65.38
2022-09-27T19:29:43.699Z,64.64
2022-09-27T19:32:32.954Z,65.12
2022-09-27T19:35:16.343Z,64.50
2022-09-27T19:58:57.421Z,64.09
2022-09-27T20:01:59.968Z,64.17
2022-09-27T20:04:55.824Z,63.33
2022-09-27T20:07:59.169Z,64.50
2022-09-27T20:10:56.706Z,63.89
2022-09-27T20:17:02.954Z,64.56
2022-09-27T20:19:50.814Z,65.21
2022-09-27T20:22:37.825Z,64.46
2022-09-27T20:47:13.575Z,63.52
2022-09-27T20:49:59.191Z,63.62
2022-09-27T20:52:52.912Z,63.79
2022-09-27T20:55:56.393Z,63.90
2022-09-27T20:58:42.370Z,64.50
2022-09-27T21:01:54.649Z,64.35
2022-09-27T21:04:48.943Z,63.26
2022-09-27T21:08:00.238Z,63.52
2022-09-27T21:56:53.395Z,57.49
2022-09-27T22:00:06.833Z,56.92
2022-09-27T22:02:59.344Z,56.36
2022-09-27T22:12:08.457Z,56.52
2022-09-27T22:14:58.067Z,56.35
2022-09-27T22:17:45.652Z,56.81
2022-09-27T22:20:38.246Z,56.79
2022-09-27T22:23:28.118Z,56.05
2022-09-27T22:26:28.618Z,57.04
2022-09-27T23:17:12.413Z,55.27
2022-09-27T23:19:56.629Z,55.17
2022-09-27T23:22:41.655Z,55.04
2022-09-27T23:25:33.966Z,54.69
2022-09-27T23:28:43.100Z,54.85
2022-09-27T23:31:48.016Z,54.77
2022-09-27T23:34:34.565Z,54.71
2022-09-27T23:37:55.726Z,54.83
2022-09-27T23:40:46.892Z,54.87
2022-09-27T23:43:33.708Z,54.92
2022-09-27T23:46:21.510Z,54.86
2022-09-27T23:49:17.573Z,54.96
2022-09-27T23:52:07.091Z,55.24
2022-09-27T23:54:58.526Z,54.99
2022-09-27T23:57:48.735Z,55.78
